sensor_id;sensor_type;location;lat;lon;timestamp;pressure;altitude;pressure_sealevel;temperature;humidity
47104;BME280;32853;52.164;5.400;2023-05-01T00:00:54;101789.06;;;14.63;76.13
47104;BME280;32853;52.164;5.400;2023-05-01T00:03:32;101797.06;;;14.60;76.14
47104;BME280;32853;52.164;5.400;2023-05-01T00:06:03;101779.38;;;14.64;75.68
47104;BME280;32853;52.164;5.400;2023-05-01T00:08:30;101768.03;;;14.40;77.67
47104;BME280;32853;52.164;5.400;2023-05-01T00:11:05;101785.66;;;14.60;78.62
47104;BME280;32853;52.164;5.400;2023-05-01T00:13:35;101778.34;;;14.46;78.49
47104;BME280;32853;52.164;5.400;2023-05-01T00:16:07;101708.94;;;14.05;79.73
47104;BME280;32853;52.164;5.400;2023-05-01T00:18:32;101768.88;;;14.40;78.70
47104;BME280;32853;52.164;5.400;2023-05-01T00:21:00;101763.88;;;14.34;78.08
47104;BME280;32853;52.164;5.400;2023-05-01T00:23:25;101771.72;;;14.36;77.57
47104;BME280;32853;52.164;5.400;2023-05-01T00:25:56;101705.34;;;14.07;77.58
47104;BME280;32853;52.164;5.400;2023-05-01T00:28:22;101751.47;;;14.16;77.84
47104;BME280;32853;52.164;5.400;2023-05-01T00:30:49;101763.63;;;14.18;79.25
47104;BME280;32853;52.164;5.400;2023-05-01T00:33:20;101760.75;;;14.24;78.87
47104;BME280;32853;52.164;5.400;2023-05-01T00:35:45;101760.16;;;14.18;78.63
47104;BME280;32853;52.164;5.400;2023-05-01T00:38:17;101726.69;;;14.00;81.03
47104;BME280;32853;52.164;5.400;2023-05-01T00:40:45;101749.59;;;14.19;82.02
47104;BME280;32853;52.164;5.400;2023-05-01T00:43:11;101742.66;;;14.17;81.94
47104;BME280;32853;52.164;5.400;2023-05-01T00:45:39;101737.88;;;14.05;80.65
47104;BME280;32853;52.164;5.400;2023-05-01T00:48:05;101697.66;;;13.81;81.83
47104;BME280;32853;52.164;5.400;2023-05-01T00:50:33;101717.53;;;13.88;81.85
47104;BME280;32853;52.164;5.400;2023-05-01T00:53:06;101728.78;;;13.91;82.68
47104;BME280;32853;52.164;5.400;2023-05-01T00:55:31;101720.25;;;13.85;82.12
47104;BME280;32853;52.164;5.400;2023-05-01T00:57:58;101696.34;;;13.69;82.84
47104;BME280;32853;52.164;5.400;2023-05-01T01:00:24;101717.19;;;13.74;83.03
47104;BME280;32853;52.164;5.400;2023-05-01T01:02:49;101712.00;;;13.72;82.08
47104;BME280;32853;52.164;5.400;2023-05-01T01:05:16;101703.25;;;13.72;81.80
47104;BME280;32853;52.164;5.400;2023-05-01T01:08:00;101701.25;;;13.78;83.48
47104;BME280;32853;52.164;5.400;2023-05-01T01:10:46;101705.66;;;13.78;83.52
47104;BME280;32853;52.164;5.400;2023-05-01T01:13:29;101703.16;;;13.75;84.86
47104;BME280;32853;52.164;5.400;2023-05-01T01:21:40;101662.31;;;13.66;84.05
47104;BME280;32853;52.164;5.400;2023-05-01T01:33:24;101613.38;;;13.17;85.02
47104;BME280;32853;52.164;5.400;2023-05-01T01:35:56;101614.03;;;13.00;86.11
47104;BME280;32853;52.164;5.400;2023-05-01T01:41:21;101614.00;;;13.25;84.05
47104;BME280;32853;52.164;5.400;2023-05-01T01:43:57;101653.97;;;13.33;84.61
47104;BME280;32853;52.164;5.400;2023-05-01T01:46:25;101655.47;;;13.38;84.63
47104;BME280;32853;52.164;5.400;2023-05-01T01:49:14;101644.53;;;13.27;84.80
47104;BME280;32853;52.164;5.400;2023-05-01T01:51:44;101635.72;;;13.28;85.50
47104;BME280;32853;52.164;5.400;2023-05-01T01:54:22;101532.09;;;12.68;86.33
47104;BME280;32853;52.164;5.400;2023-05-01T01:56:50;101627.56;;;13.13;87.11
47104;BME280;32853;52.164;5.400;2023-05-01T01:59:20;101585.31;;;12.95;86.95
47104;BME280;32853;52.164;5.400;2023-05-01T02:01:49;101625.47;;;13.22;85.20
47104;BME280;32853;52.164;5.400;2023-05-01T02:04:24;101624.56;;;13.23;85.52
47104;BME280;32853;52.164;5.400;2023-05-01T02:06:59;101615.75;;;13.24;86.89
47104;BME280;32853;52.164;5.400;2023-05-01T02:09:27;101599.53;;;13.13;85.46
47104;BME280;32853;52.164;5.400;2023-05-01T02:11:56;101592.13;;;13.01;87.66
47104;BME280;32853;52.164;5.400;2023-05-01T02:14:27;101608.31;;;13.12;88.60
47104;BME280;32853;52.164;5.400;2023-05-01T02:16:54;101541.22;;;12.82;88.06
47104;BME280;32853;52.164;5.400;2023-05-01T02:19:28;101562.38;;;13.00;87.79
47104;BME280;32853;52.164;5.400;2023-05-01T02:21:56;101609.19;;;13.13;87.50
47104;BME280;32853;52.164;5.400;2023-05-01T02:24:26;101587.44;;;13.09;87.37
47104;BME280;32853;52.164;5.400;2023-05-01T02:27:03;101595.97;;;13.14;87.74
47104;BME280;32853;52.164;5.400;2023-05-01T02:29:31;101593.53;;;13.09;88.89
47104;BME280;32853;52.164;5.400;2023-05-01T02:31:58;101552.50;;;12.84;90.39
47104;BME280;32853;52.164;5.400;2023-05-01T02:34:24;101540.75;;;12.70;92.12
47104;BME280;32853;52.164;5.400;2023-05-01T02:36:49;101589.56;;;12.99;93.05
47104;BME280;32853;52.164;5.400;2023-05-01T02:39:15;101539.69;;;12.76;94.37
47104;BME280;32853;52.164;5.400;2023-05-01T02:41:40;101567.75;;;12.97;96.27
47104;BME280;32853;52.164;5.400;2023-05-01T02:44:08;101537.84;;;12.78;96.44
47104;BME280;32853;52.164;5.400;2023-05-01T02:46:36;101558.53;;;12.86;95.70
47104;BME280;32853;52.164;5.400;2023-05-01T02:49:07;101579.84;;;13.01;96.33
47104;BME280;32853;52.164;5.400;2023-05-01T02:51:34;101575.72;;;12.94;97.43
47104;BME280;32853;52.164;5.400;2023-05-01T02:54:00;101523.69;;;12.59;97.45
47104;BME280;32853;52.164;5.400;2023-05-01T02:56:25;101567.06;;;12.92;98.36
47104;BME280;32853;52.164;5.400;2023-05-01T02:58:52;101562.16;;;12.83;98.65
47104;BME280;32853;52.164;5.400;2023-05-01T03:01:19;101519.19;;;12.62;99.36
47104;BME280;32853;52.164;5.400;2023-05-01T03:03:52;101554.78;;;12.93;97.84
47104;BME280;32853;52.164;5.400;2023-05-01T03:06:17;101548.94;;;12.86;97.38
47104;BME280;32853;52.164;5.400;2023-05-01T03:08:43;101502.91;;;12.54;97.21
47104;BME280;32853;52.164;5.400;2023-05-01T03:11:09;101545.38;;;12.87;92.10
47104;BME280;32853;52.164;5.400;2023-05-01T03:13:35;101509.06;;;12.53;94.14
47104;BME280;32853;52.164;5.400;2023-05-01T03:16:21;101544.81;;;12.79;94.48
47104;BME280;32853;52.164;5.400;2023-05-01T03:18:48;101538.00;;;12.73;93.66
47104;BME280;32853;52.164;5.400;2023-05-01T03:21:14;101489.09;;;12.49;93.55
47104;BME280;32853;52.164;5.400;2023-05-01T03:23:42;101439.19;;;12.27;93.43
47104;BME280;32853;52.164;5.400;2023-05-01T03:26:08;101527.47;;;12.75;94.22
47104;BME280;32853;52.164;5.400;2023-05-01T03:28:35;101531.97;;;12.71;95.34
47104;BME280;32853;52.164;5.400;2023-05-01T03:31:00;101519.78;;;12.47;95.60
47104;BME280;32853;52.164;5.400;2023-05-01T03:33:26;101520.16;;;12.60;95.98
47104;BME280;32853;52.164;5.400;2023-05-01T03:36:02;101523.09;;;12.75;94.72
47104;BME280;32853;52.164;5.400;2023-05-01T03:38:31;101523.97;;;12.74;93.99
47104;BME280;32853;52.164;5.400;2023-05-01T03:40:57;101516.28;;;12.70;94.06
47104;BME280;32853;52.164;5.400;2023-05-01T03:43:23;101520.63;;;12.71;93.92
47104;BME280;32853;52.164;5.400;2023-05-01T03:46:06;101474.94;;;12.53;93.09
47104;BME280;32853;52.164;5.400;2023-05-01T03:48:53;101515.25;;;12.74;92.32
47104;BME280;32853;52.164;5.400;2023-05-01T03:51:22;101514.34;;;12.75;93.90
47104;BME280;32853;52.164;5.400;2023-05-01T03:53:54;101457.78;;;12.44;94.51
47104;BME280;32853;52.164;5.400;2023-05-01T03:56:24;101508.34;;;12.71;94.70
47104;BME280;32853;52.164;5.400;2023-05-01T03:59:09;101507.28;;;12.77;95.44
47104;BME280;32853;52.164;5.400;2023-05-01T04:01:47;101456.06;;;12.43;95.94
47104;BME280;32853;52.164;5.400;2023-05-01T04:04:22;101459.44;;;12.47;94.28
47104;BME280;32853;52.164;5.400;2023-05-01T04:06:55;101499.81;;;12.66;95.39
47104;BME280;32853;52.164;5.400;2023-05-01T04:09:20;101454.38;;;12.42;93.44
47104;BME280;32853;52.164;5.400;2023-05-01T04:11:53;101480.81;;;12.60;94.73
47104;BME280;32853;52.164;5.400;2023-05-01T04:14:18;101471.63;;;12.48;92.84
47104;BME280;32853;52.164;5.400;2023-05-01T04:16:43;101496.03;;;12.73;91.83
47104;BME280;32853;52.164;5.400;2023-05-01T04:19:12;101501.28;;;12.73;92.53
47104;BME280;32853;52.164;5.400;2023-05-01T04:21:44;101498.78;;;12.70;93.47
47104;BME280;32853;52.164;5.400;2023-05-01T04:24:15;101480.94;;;12.57;95.13
47104;BME280;32853;52.164;5.400;2023-05-01T04:26:42;101501.72;;;12.61;95.68
47104;BME280;32853;52.164;5.400;2023-05-01T04:29:10;101448.75;;;12.28;94.71
47104;BME280;32853;52.164;5.400;2023-05-01T04:31:35;101506.91;;;12.63;95.10
47104;BME280;32853;52.164;5.400;2023-05-01T04:34:00;101489.66;;;12.57;95.59
47104;BME280;32853;52.164;5.400;2023-05-01T04:36:26;101451.91;;;12.38;96.34
47104;BME280;32853;52.164;5.400;2023-05-01T04:38:51;101507.75;;;12.65;97.13
47104;BME280;32853;52.164;5.400;2023-05-01T04:41:16;101499.25;;;12.58;97.12
47104;BME280;32853;52.164;5.400;2023-05-01T04:43:42;101478.44;;;12.54;96.72
47104;BME280;32853;52.164;5.400;2023-05-01T04:46:12;101458.75;;;12.42;96.81
47104;BME280;32853;52.164;5.400;2023-05-01T04:48:45;101499.81;;;12.66;97.18
47104;BME280;32853;52.164;5.400;2023-05-01T04:51:16;101499.13;;;12.61;95.47
47104;BME280;32853;52.164;5.400;2023-05-01T04:53:42;101503.50;;;12.61;95.61
47104;BME280;32853;52.164;5.400;2023-05-01T04:56:07;101465.66;;;12.44;93.61
47104;BME280;32853;52.164;5.400;2023-05-01T04:58:32;101493.59;;;12.69;94.49
47104;BME280;32853;52.164;5.400;2023-05-01T05:01:00;101489.97;;;12.71;92.96
47104;BME280;32853;52.164;5.400;2023-05-01T05:03:25;101491.09;;;12.66;93.50
47104;BME280;32853;52.164;5.400;2023-05-01T05:05:51;101484.28;;;12.60;94.45
47104;BME280;32853;52.164;5.400;2023-05-01T05:08:16;101457.31;;;12.33;94.91
47104;BME280;32853;52.164;5.400;2023-05-01T05:10:42;101453.31;;;12.46;93.87
47104;BME280;32853;52.164;5.400;2023-05-01T05:13:07;101495.16;;;12.73;94.51
47104;BME280;32853;52.164;5.400;2023-05-01T05:15:46;101480.59;;;12.66;92.16
47104;BME280;32853;52.164;5.400;2023-05-01T05:18:14;101492.44;;;12.76;91.81
47104;BME280;32853;52.164;5.400;2023-05-01T05:20:39;101495.28;;;12.70;91.92
47104;BME280;32853;52.164;5.400;2023-05-01T05:23:05;101495.91;;;12.76;91.58
47104;BME280;32853;52.164;5.400;2023-05-01T05:25:30;101449.97;;;12.43;90.72
47104;BME280;32853;52.164;5.400;2023-05-01T05:27:56;101443.63;;;12.48;91.44
47104;BME280;32853;52.164;5.400;2023-05-01T05:30:21;101479.25;;;12.77;90.83
47104;BME280;32853;52.164;5.400;2023-05-01T05:32:46;101488.56;;;12.86;90.72
47104;BME280;32853;52.164;5.400;2023-05-01T05:35:12;101485.72;;;12.91;91.12
47104;BME280;32853;52.164;5.400;2023-05-01T05:37:37;101466.00;;;12.80;91.82
47104;BME280;32853;52.164;5.400;2023-05-01T05:40:03;101483.59;;;13.00;91.16
47104;BME280;32853;52.164;5.400;2023-05-01T05:42:28;101489.59;;;13.04;92.07
47104;BME280;32853;52.164;5.400;2023-05-01T05:44:54;101485.03;;;13.09;89.30
47104;BME280;32853;52.164;5.400;2023-05-01T05:47:19;101437.50;;;12.93;89.30
47104;BME280;32853;52.164;5.400;2023-05-01T05:49:44;101481.94;;;13.21;87.01
47104;BME280;32853;52.164;5.400;2023-05-01T05:52:14;101478.66;;;13.15;85.85
47104;BME280;32853;52.164;5.400;2023-05-01T05:54:39;101433.38;;;12.88;86.71
47104;BME280;32853;52.164;5.400;2023-05-01T05:57:05;101479.94;;;13.04;84.82
47104;BME280;32853;52.164;5.400;2023-05-01T05:59:30;101470.84;;;13.13;84.83
47104;BME280;32853;52.164;5.400;2023-05-01T06:01:55;101411.00;;;12.77;85.61
47104;BME280;32853;52.164;5.400;2023-05-01T06:04:27;101427.19;;;12.89;86.50
47104;BME280;32853;52.164;5.400;2023-05-01T06:06:53;101478.53;;;13.19;84.30
47104;BME280;32853;52.164;5.400;2023-05-01T06:09:22;101475.38;;;13.31;85.43
47104;BME280;32853;52.164;5.400;2023-05-01T06:11:49;101428.47;;;13.00;85.43
47104;BME280;32853;52.164;5.400;2023-05-01T06:14:15;101428.47;;;13.00;87.29
47104;BME280;32853;52.164;5.400;2023-05-01T06:16:44;101463.22;;;13.29;86.51
47104;BME280;32853;52.164;5.400;2023-05-01T06:19:10;101474.94;;;13.42;84.10
47104;BME280;32853;52.164;5.400;2023-05-01T06:21:46;101480.31;;;13.39;82.49
47104;BME280;32853;52.164;5.400;2023-05-01T06:24:11;101466.63;;;13.53;81.51
47104;BME280;32853;52.164;5.400;2023-05-01T06:26:37;101468.78;;;13.43;81.07
47104;BME280;32853;52.164;5.400;2023-05-01T06:29:05;101457.97;;;13.49;81.32
47104;BME280;32853;52.164;5.400;2023-05-01T06:31:31;101461.34;;;13.53;82.14
47104;BME280;32853;52.164;5.400;2023-05-01T06:33:56;101416.59;;;13.34;79.84
47104;BME280;32853;52.164;5.400;2023-05-01T06:36:21;101463.41;;;13.66;80.54
47104;BME280;32853;52.164;5.400;2023-05-01T06:38:57;101459.94;;;13.85;83.25
47104;BME280;32853;52.164;5.400;2023-05-01T06:41:27;101474.09;;;13.82;80.66
47104;BME280;32853;52.164;5.400;2023-05-01T06:44:12;101456.44;;;13.86;79.40
47104;BME280;32853;52.164;5.400;2023-05-01T06:46:51;101416.09;;;13.66;80.06
47104;BME280;32853;52.164;5.400;2023-05-01T06:49:19;101419.75;;;13.62;78.04
47104;BME280;32853;52.164;5.400;2023-05-01T06:51:44;101458.13;;;13.87;77.63
47104;BME280;32853;52.164;5.400;2023-05-01T06:54:10;101422.34;;;13.64;77.72
47104;BME280;32853;52.164;5.400;2023-05-01T06:56:42;101430.88;;;13.69;78.92
47104;BME280;32853;52.164;5.400;2023-05-01T06:59:09;101458.25;;;13.84;80.13
47104;BME280;32853;52.164;5.400;2023-05-01T07:01:35;101450.25;;;13.87;80.40
47104;BME280;32853;52.164;5.400;2023-05-01T07:04:03;101459.25;;;13.81;81.63
47104;BME280;32853;52.164;5.400;2023-05-01T07:06:40;101467.25;;;13.99;79.18
47104;BME280;32853;52.164;5.400;2023-05-01T07:09:12;101451.28;;;14.03;79.29
47104;BME280;32853;52.164;5.400;2023-05-01T07:11:50;101459.16;;;14.03;78.02
47104;BME280;32853;52.164;5.400;2023-05-01T07:14:16;101396.44;;;13.75;78.75
47104;BME280;32853;52.164;5.400;2023-05-01T07:16:41;101459.19;;;14.22;77.60
47104;BME280;32853;52.164;5.400;2023-05-01T07:19:06;101448.81;;;14.19;78.22
47104;BME280;32853;52.164;5.400;2023-05-01T07:21:32;101446.41;;;14.33;78.15
47104;BME280;32853;52.164;5.400;2023-05-01T07:23:57;101454.09;;;14.19;77.49
47104;BME280;32853;52.164;5.400;2023-05-01T07:26:25;101438.41;;;14.16;79.72
47104;BME280;32853;52.164;5.400;2023-05-01T07:28:50;101448.25;;;14.31;78.80
47104;BME280;32853;52.164;5.400;2023-05-01T07:31:27;101453.69;;;14.47;81.34
47104;BME280;32853;52.164;5.400;2023-05-01T07:33:52;101451.56;;;14.55;79.98
47104;BME280;32853;52.164;5.400;2023-05-01T07:36:17;101450.09;;;14.29;81.26
47104;BME280;32853;52.164;5.400;2023-05-01T07:38:44;101409.03;;;14.06;83.66
47104;BME280;32853;52.164;5.400;2023-05-01T07:41:09;101403.44;;;14.14;83.81
47104;BME280;32853;52.164;5.400;2023-05-01T07:43:35;101443.69;;;14.55;84.47
47104;BME280;32853;52.164;5.400;2023-05-01T07:46:01;101459.75;;;14.68;81.62
47104;BME280;32853;52.164;5.400;2023-05-01T07:48:27;101459.50;;;14.72;81.08
47104;BME280;32853;52.164;5.400;2023-05-01T07:50:53;101458.16;;;14.82;81.23
47104;BME280;32853;52.164;5.400;2023-05-01T07:53:20;101449.47;;;14.80;80.50
47104;BME280;32853;52.164;5.400;2023-05-01T07:55:47;101453.22;;;14.94;79.79
47104;BME280;32853;52.164;5.400;2023-05-01T07:58:12;101452.03;;;14.82;79.57
47104;BME280;32853;52.164;5.400;2023-05-01T08:00:37;101454.41;;;14.88;79.57
47104;BME280;32853;52.164;5.400;2023-05-01T08:03:04;101450.59;;;14.94;80.57
47104;BME280;32853;52.164;5.400;2023-05-01T08:05:29;101457.28;;;15.01;81.03
47104;BME280;32853;52.164;5.400;2023-05-01T08:07:56;101451.19;;;15.18;79.60
47104;BME280;32853;52.164;5.400;2023-05-01T08:10:21;101449.25;;;15.21;78.56
47104;BME280;32853;52.164;5.400;2023-05-01T08:12:46;101437.22;;;15.16;79.40
47104;BME280;32853;52.164;5.400;2023-05-01T08:15:14;101453.06;;;15.33;79.14
47104;BME280;32853;52.164;5.400;2023-05-01T08:17:39;101454.41;;;15.42;79.31
47104;BME280;32853;52.164;5.400;2023-05-01T08:20:07;101456.78;;;15.46;77.13
47104;BME280;32853;52.164;5.400;2023-05-01T08:22:33;101427.56;;;15.33;77.50
47104;BME280;32853;52.164;5.400;2023-05-01T08:24:58;101438.81;;;15.54;75.19
47104;BME280;32853;52.164;5.400;2023-05-01T08:27:23;101456.16;;;15.58;74.37
47104;BME280;32853;52.164;5.400;2023-05-01T08:29:48;101454.03;;;15.66;74.59
47104;BME280;32853;52.164;5.400;2023-05-01T08:32:14;101442.31;;;15.72;74.82
47104;BME280;32853;52.164;5.400;2023-05-01T08:34:39;101438.91;;;15.70;75.11
47104;BME280;32853;52.164;5.400;2023-05-01T08:37:12;101431.75;;;15.72;73.79
47104;BME280;32853;52.164;5.400;2023-05-01T08:39:49;101452.22;;;15.84;74.82
47104;BME280;32853;52.164;5.400;2023-05-01T08:42:15;101429.00;;;15.75;75.03
47104;BME280;32853;52.164;5.400;2023-05-01T08:44:41;101445.41;;;15.80;72.86
47104;BME280;32853;52.164;5.400;2023-05-01T08:47:14;101441.16;;;15.78;71.25
47104;BME280;32853;52.164;5.400;2023-05-01T08:49:40;101461.53;;;15.91;69.51
47104;BME280;32853;52.164;5.400;2023-05-01T08:52:07;101447.22;;;15.95;70.83
47104;BME280;32853;52.164;5.400;2023-05-01T08:54:33;101453.06;;;16.02;70.36
47104;BME280;32853;52.164;5.400;2023-05-01T08:57:00;101455.44;;;16.07;70.28
47104;BME280;32853;52.164;5.400;2023-05-01T08:59:34;101453.88;;;15.87;68.28
47104;BME280;32853;52.164;5.400;2023-05-01T09:02:09;101446.00;;;16.03;68.70
47104;BME280;32853;52.164;5.400;2023-05-01T09:04:40;101455.81;;;16.16;69.25
47104;BME280;32853;52.164;5.400;2023-05-01T09:07:06;101457.09;;;16.25;69.43
47104;BME280;32853;52.164;5.400;2023-05-01T09:09:45;101460.88;;;16.37;70.30
47104;BME280;32853;52.164;5.400;2023-05-01T09:12:17;101447.75;;;16.51;70.83
47104;BME280;32853;52.164;5.400;2023-05-01T09:14:45;101461.06;;;16.49;69.30
47104;BME280;32853;52.164;5.400;2023-05-01T09:17:11;101451.06;;;16.23;67.12
47104;BME280;32853;52.164;5.400;2023-05-01T09:19:37;101418.00;;;16.16;64.26
47104;BME280;32853;52.164;5.400;2023-05-01T09:22:03;101451.66;;;16.28;63.44
47104;BME280;32853;52.164;5.400;2023-05-01T09:24:29;101459.69;;;16.42;63.63
47104;BME280;32853;52.164;5.400;2023-05-01T09:26:54;101467.44;;;16.45;62.90
47104;BME280;32853;52.164;5.400;2023-05-01T09:29:51;101452.84;;;16.71;64.19
47104;BME280;32853;52.164;5.400;2023-05-01T09:32:19;101412.78;;;16.32;62.80
47104;BME280;32853;52.164;5.400;2023-05-01T09:34:46;101444.47;;;15.81;63.56
47104;BME280;32853;52.164;5.400;2023-05-01T09:37:40;101468.47;;;16.43;62.85
47104;BME280;32853;52.164;5.400;2023-05-01T09:40:12;101441.47;;;16.53;63.17
47104;BME280;32853;52.164;5.400;2023-05-01T09:42:39;101473.13;;;16.87;63.34
47104;BME280;32853;52.164;5.400;2023-05-01T09:45:11;101452.63;;;16.43;62.53
47104;BME280;32853;52.164;5.400;2023-05-01T09:47:38;101468.69;;;16.87;62.33
47104;BME280;32853;52.164;5.400;2023-05-01T09:50:05;101470.56;;;17.01;61.11
47104;BME280;32853;52.164;5.400;2023-05-01T09:52:31;101469.63;;;16.86;60.98
47104;BME280;32853;52.164;5.400;2023-05-01T09:55:17;101383.63;;;16.65;60.70
47104;BME280;32853;52.164;5.400;2023-05-01T09:57:51;101446.28;;;17.24;60.60
47104;BME280;32853;52.164;5.400;2023-05-01T10:00:16;101466.06;;;17.33;59.85
47104;BME280;32853;52.164;5.400;2023-05-01T10:02:47;101463.06;;;17.39;58.50
47104;BME280;32853;52.164;5.400;2023-05-01T10:05:22;101447.91;;;17.57;58.36
47104;BME280;32853;52.164;5.400;2023-05-01T10:08:00;101424.19;;;16.95;57.18
47104;BME280;32853;52.164;5.400;2023-05-01T10:10:27;101468.81;;;17.16;57.64
47104;BME280;32853;52.164;5.400;2023-05-01T10:12:53;101454.38;;;17.37;57.91
47104;BME280;32853;52.164;5.400;2023-05-01T10:15:37;101451.31;;;17.29;58.07
47104;BME280;32853;52.164;5.400;2023-05-01T10:18:02;101453.28;;;17.55;56.67
47104;BME280;32853;52.164;5.400;2023-05-01T10:20:30;101461.63;;;17.63;55.82
47104;BME280;32853;52.164;5.400;2023-05-01T10:22:55;101460.69;;;17.64;55.49
47104;BME280;32853;52.164;5.400;2023-05-01T10:25:26;101461.50;;;17.81;55.04
47104;BME280;32853;52.164;5.400;2023-05-01T10:27:52;101428.25;;;17.77;55.46
47104;BME280;32853;52.164;5.400;2023-05-01T10:30:21;101476.06;;;18.02;54.71
47104;BME280;32853;52.164;5.400;2023-05-01T10:32:48;101433.34;;;17.94;55.05
47104;BME280;32853;52.164;5.400;2023-05-01T10:35:18;101450.00;;;18.10;53.80
47104;BME280;32853;52.164;5.400;2023-05-01T10:37:58;101477.03;;;18.44;53.48
47104;BME280;32853;52.164;5.400;2023-05-01T10:40:50;101470.38;;;17.94;52.08
47104;BME280;32853;52.164;5.400;2023-05-01T10:43:22;101475.25;;;17.71;53.08
47104;BME280;32853;52.164;5.400;2023-05-01T10:45:54;101485.97;;;17.84;53.50
47104;BME280;32853;52.164;5.400;2023-05-01T10:51:16;101484.59;;;18.07;51.36
47104;BME280;32853;52.164;5.400;2023-05-01T10:54:21;101480.34;;;18.33;51.83
47104;BME280;32853;52.164;5.400;2023-05-01T10:58:57;101488.38;;;18.32;51.61
47104;BME280;32853;52.164;5.400;2023-05-01T11:01:33;101448.94;;;18.27;51.76
47104;BME280;32853;52.164;5.400;2023-05-01T11:09:54;101486.16;;;18.81;51.70
47104;BME280;32853;52.164;5.400;2023-05-01T11:15:30;101492.03;;;18.57;53.47
47104;BME280;32853;52.164;5.400;2023-05-01T11:18:03;101466.91;;;18.65;54.21
47104;BME280;32853;52.164;5.400;2023-05-01T11:23:07;101494.06;;;19.09;55.74
47104;BME280;32853;52.164;5.400;2023-05-01T11:25:40;101472.50;;;19.01;55.86
47104;BME280;32853;52.164;5.400;2023-05-01T11:28:24;101479.13;;;18.94;55.67
47104;BME280;32853;52.164;5.400;2023-05-01T11:30:52;101475.28;;;19.12;56.74
47104;BME280;32853;52.164;5.400;2023-05-01T11:33:29;101490.97;;;19.30;55.16
47104;BME280;32853;52.164;5.400;2023-05-01T11:35:56;101474.97;;;19.44;56.15
47104;BME280;32853;52.164;5.400;2023-05-01T11:38:28;101469.56;;;19.45;56.36
47104;BME280;32853;52.164;5.400;2023-05-01T11:41:02;101475.66;;;19.21;55.89
47104;BME280;32853;52.164;5.400;2023-05-01T11:43:54;101424.41;;;18.93;55.02
47104;BME280;32853;52.164;5.400;2023-05-01T11:46:31;101476.56;;;19.07;55.60
47104;BME280;32853;52.164;5.400;2023-05-01T11:49:00;101471.69;;;18.72;55.75
47104;BME280;32853;52.164;5.400;2023-05-01T11:51:26;101441.44;;;18.76;55.25
47104;BME280;32853;52.164;5.400;2023-05-01T11:56:33;101461.09;;;18.86;54.64
47104;BME280;32853;52.164;5.400;2023-05-01T11:59:08;101442.38;;;19.29;55.50
47104;BME280;32853;52.164;5.400;2023-05-01T12:01:46;101460.72;;;19.85;54.68
47104;BME280;32853;52.164;5.400;2023-05-01T12:04:12;101436.03;;;19.44;54.13
47104;BME280;32853;52.164;5.400;2023-05-01T12:06:47;101483.44;;;20.01;54.10
47104;BME280;32853;52.164;5.400;2023-05-01T12:09:18;101481.84;;;20.24;54.40
47104;BME280;32853;52.164;5.400;2023-05-01T12:11:51;101488.44;;;20.31;54.08
47104;BME280;32853;52.164;5.400;2023-05-01T12:14:29;101484.94;;;20.31;53.17
47104;BME280;32853;52.164;5.400;2023-05-01T12:17:04;101487.28;;;19.85;54.31
47104;BME280;32853;52.164;5.400;2023-05-01T12:19:45;101495.06;;;19.21;53.31
47104;BME280;32853;52.164;5.400;2023-05-01T12:22:10;101491.16;;;19.00;51.75
47104;BME280;32853;52.164;5.400;2023-05-01T12:24:36;101500.94;;;19.39;52.81
47104;BME280;32853;52.164;5.400;2023-05-01T12:27:11;101503.28;;;19.43;52.25
47104;BME280;32853;52.164;5.400;2023-05-01T12:29:41;101495.00;;;19.35;53.86
47104;BME280;32853;52.164;5.400;2023-05-01T12:32:17;101516.13;;;19.50;56.29
47104;BME280;32853;52.164;5.400;2023-05-01T12:34:42;101485.03;;;19.12;58.38
47104;BME280;32853;52.164;5.400;2023-05-01T12:37:08;101499.34;;;19.09;59.14
47104;BME280;32853;52.164;5.400;2023-05-01T12:39:38;101479.22;;;19.07;58.30
47104;BME280;32853;52.164;5.400;2023-05-01T12:42:14;101498.63;;;18.93;58.78
47104;BME280;32853;52.164;5.400;2023-05-01T12:44:41;101461.69;;;18.63;61.21
47104;BME280;32853;52.164;5.400;2023-05-01T12:47:08;101496.66;;;18.82;61.56
47104;BME280;32853;52.164;5.400;2023-05-01T12:49:35;101505.50;;;19.10;62.87
47104;BME280;32853;52.164;5.400;2023-05-01T12:52:03;101500.78;;;18.74;62.27
47104;BME280;32853;52.164;5.400;2023-05-01T12:54:30;101484.88;;;18.74;64.05
47104;BME280;32853;52.164;5.400;2023-05-01T12:57:11;101503.34;;;19.02;63.87
47104;BME280;32853;52.164;5.400;2023-05-01T12:59:40;101494.44;;;18.76;64.22
47104;BME280;32853;52.164;5.400;2023-05-01T13:02:08;101475.59;;;19.08;66.77
47104;BME280;32853;52.164;5.400;2023-05-01T13:04:40;101494.28;;;19.46;67.62
47104;BME280;32853;52.164;5.400;2023-05-01T13:07:13;101493.69;;;19.28;65.62
47104;BME280;32853;52.164;5.400;2023-05-01T13:09:50;101496.50;;;18.71;71.78
47104;BME280;32853;52.164;5.400;2023-05-01T13:12:19;101494.69;;;18.57;73.14
47104;BME280;32853;52.164;5.400;2023-05-01T13:14:49;101499.25;;;18.41;76.54
47104;BME280;32853;52.164;5.400;2023-05-01T13:17:29;101499.63;;;18.21;82.98
47104;BME280;32853;52.164;5.400;2023-05-01T13:20:09;101499.63;;;18.49;83.23
47104;BME280;32853;52.164;5.400;2023-05-01T13:22:37;101484.50;;;18.51;79.00
47104;BME280;32853;52.164;5.400;2023-05-01T13:25:04;101487.59;;;18.86;76.65
47104;BME280;32853;52.164;5.400;2023-05-01T13:27:41;101490.91;;;18.05;71.66
47104;BME280;32853;52.164;5.400;2023-05-01T13:30:33;101495.16;;;17.63;71.90
47104;BME280;32853;52.164;5.400;2023-05-01T13:33:04;101453.03;;;17.30;73.46
47104;BME280;32853;52.164;5.400;2023-05-01T13:35:31;101451.25;;;17.30;69.50
47104;BME280;32853;52.164;5.400;2023-05-01T13:37:57;101492.97;;;17.55;66.09
47104;BME280;32853;52.164;5.400;2023-05-01T13:40:23;101485.91;;;17.86;64.95